sensor_id;sensor_type;location;lat;lon;timestamp;P1;durP1;ratioP1;P2;durP2;ratioP2
20431;SDS011;10375;49.136;10.366;2023-02-15T00:02:01;56.37;;;17.00;;
20431;SDS011;10375;49.136;10.366;2023-02-15T00:04:28;41.57;;;18.60;;
20431;SDS011;10375;49.136;10.366;2023-02-15T00:07:17;75.33;;;17.73;;
20431;SDS011;10375;49.136;10.366;2023-02-15T00:09:45;50.17;;;19.77;;
20431;SDS011;10375;49.136;10.366;2023-02-15T00:12:13;44.10;;;17.97;;
20431;SDS011;10375;49.136;10.366;2023-02-15T00:14:41;96.07;;;20.23;;
20431;SDS011;10375;49.136;10.366;2023-02-15T00:17:08;98.50;;;17.87;;
20431;SDS011;10375;49.136;10.366;2023-02-15T00:19:35;53.30;;;18.53;;
20431;SDS011;10375;49.136;10.366;2023-02-15T00:22:03;51.77;;;18.23;;
20431;SDS011;10375;49.136;10.366;2023-02-15T00:24:30;37.87;;;19.43;;
20431;SDS011;10375;49.136;10.366;2023-02-15T00:26:57;56.17;;;19.00;;
20431;SDS011;10375;49.136;10.366;2023-02-15T00:29:24;38.70;;;16.97;;
20431;SDS011;10375;49.136;10.366;2023-02-15T00:31:51;46.30;;;17.60;;
20431;SDS011;10375;49.136;10.366;2023-02-15T00:34:23;49.23;;;17.73;;
20431;SDS011;10375;49.136;10.366;2023-02-15T00:36:51;50.87;;;17.37;;
20431;SDS011;10375;49.136;10.366;2023-02-15T00:39:18;42.53;;;17.20;;
20431;SDS011;10375;49.136;10.366;2023-02-15T00:41:46;42.60;;;18.23;;
20431;SDS011;10375;49.136;10.366;2023-02-15T00:44:14;40.17;;;18.87;;
20431;SDS011;10375;49.136;10.366;2023-02-15T00:46:41;48.13;;;17.57;;
20431;SDS011;10375;49.136;10.366;2023-02-15T00:49:09;53.23;;;19.37;;
20431;SDS011;10375;49.136;10.366;2023-02-15T00:51:36;41.10;;;20.43;;
20431;SDS011;10375;49.136;10.366;2023-02-15T00:54:04;55.47;;;19.07;;
20431;SDS011;10375;49.136;10.366;2023-02-15T00:56:31;33.97;;;18.00;;
20431;SDS011;10375;49.136;10.366;2023-02-15T00:58:58;64.30;;;18.83;;
20431;SDS011;10375;49.136;10.366;2023-02-15T01:01:25;71.77;;;18.77;;
20431;SDS011;10375;49.136;10.366;2023-02-15T01:03:53;39.97;;;18.30;;
20431;SDS011;10375;49.136;10.366;2023-02-15T01:06:20;39.50;;;18.07;;
20431;SDS011;10375;49.136;10.366;2023-02-15T01:08:47;66.93;;;19.37;;
20431;SDS011;10375;49.136;10.366;2023-02-15T01:11:15;43.00;;;19.27;;
20431;SDS011;10375;49.136;10.366;2023-02-15T01:13:53;40.37;;;17.80;;
20431;SDS011;10375;49.136;10.366;2023-02-15T01:16:22;49.63;;;18.93;;
20431;SDS011;10375;49.136;10.366;2023-02-15T01:18:50;43.70;;;18.47;;
20431;SDS011;10375;49.136;10.366;2023-02-15T01:21:18;60.13;;;19.20;;
20431;SDS011;10375;49.136;10.366;2023-02-15T01:23:47;36.87;;;18.07;;
20431;SDS011;10375;49.136;10.366;2023-02-15T01:26:14;43.10;;;18.93;;
20431;SDS011;10375;49.136;10.366;2023-02-15T01:28:42;43.47;;;17.43;;
20431;SDS011;10375;49.136;10.366;2023-02-15T01:31:13;40.23;;;19.43;;
20431;SDS011;10375;49.136;10.366;2023-02-15T01:33:43;54.07;;;18.57;;
20431;SDS011;10375;49.136;10.366;2023-02-15T01:36:11;49.47;;;18.87;;
20431;SDS011;10375;49.136;10.366;2023-02-15T01:38:38;50.83;;;19.43;;
20431;SDS011;10375;49.136;10.366;2023-02-15T01:41:08;48.87;;;18.57;;
20431;SDS011;10375;49.136;10.366;2023-02-15T01:43:53;34.30;;;18.73;;
20431;SDS011;10375;49.136;10.366;2023-02-15T01:46:24;66.90;;;20.63;;
20431;SDS011;10375;49.136;10.366;2023-02-15T01:49:00;62.23;;;18.83;;
20431;SDS011;10375;49.136;10.366;2023-02-15T01:51:37;49.00;;;18.83;;
20431;SDS011;10375;49.136;10.366;2023-02-15T01:54:10;53.37;;;19.40;;
20431;SDS011;10375;49.136;10.366;2023-02-15T01:56:43;89.43;;;19.07;;
20431;SDS011;10375;49.136;10.366;2023-02-15T01:59:13;52.57;;;19.63;;
20431;SDS011;10375;49.136;10.366;2023-02-15T02:01:45;70.60;;;20.30;;
20431;SDS011;10375;49.136;10.366;2023-02-15T02:07:01;75.70;;;19.67;;
20431;SDS011;10375;49.136;10.366;2023-02-15T02:09:30;63.53;;;18.20;;
20431;SDS011;10375;49.136;10.366;2023-02-15T02:11:58;50.93;;;21.50;;
20431;SDS011;10375;49.136;10.366;2023-02-15T02:14:26;50.43;;;20.63;;
20431;SDS011;10375;49.136;10.366;2023-02-15T02:16:57;57.33;;;19.60;;
20431;SDS011;10375;49.136;10.366;2023-02-15T02:20:05;67.10;;;19.37;;
20431;SDS011;10375;49.136;10.366;2023-02-15T02:25:54;60.47;;;18.87;;
20431;SDS011;10375;49.136;10.366;2023-02-15T02:39:52;52.30;;;17.87;;
20431;SDS011;10375;49.136;10.366;2023-02-15T02:47:59;60.30;;;19.50;;
20431;SDS011;10375;49.136;10.366;2023-02-15T02:50:56;56.93;;;19.53;;
20431;SDS011;10375;49.136;10.366;2023-02-15T02:53:23;56.53;;;20.20;;
20431;SDS011;10375;49.136;10.366;2023-02-15T02:55:51;89.40;;;21.33;;
20431;SDS011;10375;49.136;10.366;2023-02-15T03:01:11;48.87;;;18.43;;
20431;SDS011;10375;49.136;10.366;2023-02-15T03:04:20;52.93;;;19.53;;
20431;SDS011;10375;49.136;10.366;2023-02-15T03:06:52;57.50;;;18.80;;
20431;SDS011;10375;49.136;10.366;2023-02-15T03:09:25;68.50;;;19.97;;
20431;SDS011;10375;49.136;10.366;2023-02-15T03:12:01;46.47;;;19.73;;
20431;SDS011;10375;49.136;10.366;2023-02-15T03:14:31;57.67;;;19.77;;
20431;SDS011;10375;49.136;10.366;2023-02-15T03:16:58;67.53;;;19.03;;
20431;SDS011;10375;49.136;10.366;2023-02-15T03:19:27;66.33;;;20.97;;
20431;SDS011;10375;49.136;10.366;2023-02-15T03:22:08;62.17;;;20.37;;
20431;SDS011;10375;49.136;10.366;2023-02-15T03:25:48;41.47;;;17.90;;
20431;SDS011;10375;49.136;10.366;2023-02-15T03:27:53;45.80;;;20.17;;
20431;SDS011;10375;49.136;10.366;2023-02-15T03:30:24;37.73;;;19.67;;
20431;SDS011;10375;49.136;10.366;2023-02-15T03:32:54;51.37;;;18.83;;
20431;SDS011;10375;49.136;10.366;2023-02-15T03:35:25;50.13;;;18.20;;
20431;SDS011;10375;49.136;10.366;2023-02-15T03:38:00;46.23;;;16.77;;
20431;SDS011;10375;49.136;10.366;2023-02-15T03:40:40;43.00;;;17.70;;
20431;SDS011;10375;49.136;10.366;2023-02-15T03:46:05;43.50;;;17.50;;
20431;SDS011;10375;49.136;10.366;2023-02-15T03:48:40;35.57;;;15.90;;
20431;SDS011;10375;49.136;10.366;2023-02-15T03:51:14;46.57;;;15.07;;
20431;SDS011;10375;49.136;10.366;2023-02-15T03:56:40;66.67;;;18.03;;
20431;SDS011;10375;49.136;10.366;2023-02-15T03:59:08;50.37;;;18.60;;
20431;SDS011;10375;49.136;10.366;2023-02-15T04:04:58;31.40;;;16.93;;
20431;SDS011;10375;49.136;10.366;2023-02-15T04:07:25;37.93;;;18.33;;
20431;SDS011;10375;49.136;10.366;2023-02-15T04:09:52;35.90;;;17.37;;
20431;SDS011;10375;49.136;10.366;2023-02-15T04:12:38;36.20;;;17.90;;
20431;SDS011;10375;49.136;10.366;2023-02-15T04:15:05;51.47;;;19.43;;
20431;SDS011;10375;49.136;10.366;2023-02-15T04:17:50;58.70;;;19.80;;
20431;SDS011;10375;49.136;10.366;2023-02-15T04:20:17;44.50;;;18.27;;
20431;SDS011;10375;49.136;10.366;2023-02-15T04:23:05;48.77;;;18.87;;
20431;SDS011;10375;49.136;10.366;2023-02-15T04:25:51;46.87;;;19.00;;
20431;SDS011;10375;49.136;10.366;2023-02-15T04:28:18;37.13;;;17.77;;
20431;SDS011;10375;49.136;10.366;2023-02-15T04:30:46;36.03;;;17.80;;
20431;SDS011;10375;49.136;10.366;2023-02-15T04:33:13;49.23;;;18.53;;
20431;SDS011;10375;49.136;10.366;2023-02-15T04:35:40;44.87;;;18.97;;
20431;SDS011;10375;49.136;10.366;2023-02-15T04:38:07;44.43;;;19.27;;
20431;SDS011;10375;49.136;10.366;2023-02-15T04:40:34;39.53;;;18.90;;
20431;SDS011;10375;49.136;10.366;2023-02-15T04:43:01;44.13;;;18.80;;
20431;SDS011;10375;49.136;10.366;2023-02-15T04:45:28;37.97;;;18.37;;
20431;SDS011;10375;49.136;10.366;2023-02-15T04:47:55;59.43;;;18.80;;
20431;SDS011;10375;49.136;10.366;2023-02-15T04:50:22;41.97;;;18.80;;
20431;SDS011;10375;49.136;10.366;2023-02-15T04:52:49;38.57;;;17.80;;
20431;SDS011;10375;49.136;10.366;2023-02-15T04:55:16;44.43;;;18.00;;
20431;SDS011;10375;49.136;10.366;2023-02-15T04:57:43;31.53;;;17.43;;
20431;SDS011;10375;49.136;10.366;2023-02-15T05:00:10;29.63;;;17.73;;
20431;SDS011;10375;49.136;10.366;2023-02-15T05:02:37;34.10;;;16.77;;
20431;SDS011;10375;49.136;10.366;2023-02-15T05:05:04;40.50;;;17.93;;
20431;SDS011;10375;49.136;10.366;2023-02-15T05:07:32;33.10;;;17.03;;
20431;SDS011;10375;49.136;10.366;2023-02-15T05:09:59;42.43;;;17.73;;
20431;SDS011;10375;49.136;10.366;2023-02-15T05:12:26;31.87;;;15.90;;
20431;SDS011;10375;49.136;10.366;2023-02-15T05:14:53;37.20;;;18.20;;
20431;SDS011;10375;49.136;10.366;2023-02-15T05:17:20;38.27;;;15.80;;
20431;SDS011;10375;49.136;10.366;2023-02-15T05:19:47;33.70;;;15.87;;
20431;SDS011;10375;49.136;10.366;2023-02-15T05:22:14;36.90;;;16.07;;
20431;SDS011;10375;49.136;10.366;2023-02-15T05:24:40;29.27;;;17.23;;
20431;SDS011;10375;49.136;10.366;2023-02-15T05:27:26;29.40;;;16.40;;
20431;SDS011;10375;49.136;10.366;2023-02-15T05:30:12;46.17;;;16.53;;
20431;SDS011;10375;49.136;10.366;2023-02-15T05:32:40;42.30;;;17.23;;
20431;SDS011;10375;49.136;10.366;2023-02-15T05:35:07;59.03;;;15.30;;
20431;SDS011;10375;49.136;10.366;2023-02-15T05:37:38;47.50;;;14.93;;
20431;SDS011;10375;49.136;10.366;2023-02-15T05:40:07;47.73;;;15.73;;
20431;SDS011;10375;49.136;10.366;2023-02-15T05:42:34;31.60;;;15.73;;
20431;SDS011;10375;49.136;10.366;2023-02-15T05:45:02;38.13;;;15.20;;
20431;SDS011;10375;49.136;10.366;2023-02-15T05:47:30;39.50;;;16.00;;
20431;SDS011;10375;49.136;10.366;2023-02-15T05:49:57;46.30;;;17.83;;
20431;SDS011;10375;49.136;10.366;2023-02-15T05:52:23;41.40;;;15.97;;
20431;SDS011;10375;49.136;10.366;2023-02-15T05:54:51;45.70;;;17.03;;
20431;SDS011;10375;49.136;10.366;2023-02-15T05:57:17;37.80;;;16.23;;
20431;SDS011;10375;49.136;10.366;2023-02-15T05:59:44;43.67;;;18.03;;
20431;SDS011;10375;49.136;10.366;2023-02-15T06:02:11;33.33;;;16.67;;
20431;SDS011;10375;49.136;10.366;2023-02-15T06:04:39;45.00;;;16.47;;
20431;SDS011;10375;49.136;10.366;2023-02-15T06:07:06;34.23;;;16.37;;
20431;SDS011;10375;49.136;10.366;2023-02-15T06:09:33;39.93;;;18.30;;
20431;SDS011;10375;49.136;10.366;2023-02-15T06:12:00;35.83;;;17.00;;
20431;SDS011;10375;49.136;10.366;2023-02-15T06:14:27;35.27;;;18.77;;
20431;SDS011;10375;49.136;10.366;2023-02-15T06:16:54;30.77;;;15.83;;
20431;SDS011;10375;49.136;10.366;2023-02-15T06:19:21;35.43;;;17.57;;
20431;SDS011;10375;49.136;10.366;2023-02-15T06:21:49;32.93;;;15.90;;
20431;SDS011;10375;49.136;10.366;2023-02-15T06:24:16;30.33;;;15.60;;
20431;SDS011;10375;49.136;10.366;2023-02-15T06:26:43;48.70;;;17.77;;
20431;SDS011;10375;49.136;10.366;2023-02-15T06:29:10;65.50;;;26.20;;
20431;SDS011;10375;49.136;10.366;2023-02-15T06:31:38;36.07;;;17.33;;
20431;SDS011;10375;49.136;10.366;2023-02-15T06:34:05;35.07;;;16.67;;
20431;SDS011;10375;49.136;10.366;2023-02-15T06:36:32;37.33;;;17.17;;
20431;SDS011;10375;49.136;10.366;2023-02-15T06:38:59;34.63;;;17.13;;
20431;SDS011;10375;49.136;10.366;2023-02-15T06:41:26;39.53;;;16.70;;
20431;SDS011;10375;49.136;10.366;2023-02-15T06:43:54;28.90;;;16.43;;
20431;SDS011;10375;49.136;10.366;2023-02-15T06:46:21;35.97;;;19.23;;
20431;SDS011;10375;49.136;10.366;2023-02-15T06:48:48;37.13;;;15.77;;
20431;SDS011;10375;49.136;10.366;2023-02-15T06:51:15;34.87;;;16.27;;
20431;SDS011;10375;49.136;10.366;2023-02-15T06:53:42;38.17;;;15.67;;
20431;SDS011;10375;49.136;10.366;2023-02-15T06:56:10;37.37;;;15.97;;
20431;SDS011;10375;49.136;10.366;2023-02-15T06:58:39;28.47;;;14.67;;
20431;SDS011;10375;49.136;10.366;2023-02-15T07:01:06;37.93;;;16.47;;
20431;SDS011;10375;49.136;10.366;2023-02-15T07:03:34;35.93;;;17.10;;
20431;SDS011;10375;49.136;10.366;2023-02-15T07:06:03;34.00;;;15.63;;
20431;SDS011;10375;49.136;10.366;2023-02-15T07:08:35;30.70;;;15.57;;
20431;SDS011;10375;49.136;10.366;2023-02-15T07:11:03;33.37;;;15.87;;
20431;SDS011;10375;49.136;10.366;2023-02-15T07:13:50;31.13;;;16.53;;
20431;SDS011;10375;49.136;10.366;2023-02-15T07:16:19;28.30;;;14.73;;
20431;SDS011;10375;49.136;10.366;2023-02-15T07:18:46;29.73;;;16.13;;
20431;SDS011;10375;49.136;10.366;2023-02-15T07:21:13;28.63;;;15.50;;
20431;SDS011;10375;49.136;10.366;2023-02-15T07:23:40;29.67;;;16.60;;
20431;SDS011;10375;49.136;10.366;2023-02-15T07:26:07;25.17;;;14.83;;
20431;SDS011;10375;49.136;10.366;2023-02-15T07:28:35;24.80;;;15.23;;
20431;SDS011;10375;49.136;10.366;2023-02-15T07:31:03;43.23;;;15.90;;
20431;SDS011;10375;49.136;10.366;2023-02-15T07:33:31;30.23;;;15.43;;
20431;SDS011;10375;49.136;10.366;2023-02-15T07:36:00;30.73;;;15.60;;
20431;SDS011;10375;49.136;10.366;2023-02-15T07:38:33;29.87;;;15.33;;
20431;SDS011;10375;49.136;10.366;2023-02-15T07:41:02;31.43;;;14.97;;
20431;SDS011;10375;49.136;10.366;2023-02-15T07:43:35;29.73;;;16.10;;
20431;SDS011;10375;49.136;10.366;2023-02-15T07:46:05;29.07;;;15.53;;
20431;SDS011;10375;49.136;10.366;2023-02-15T07:48:34;22.77;;;14.23;;
20431;SDS011;10375;49.136;10.366;2023-02-15T07:51:03;39.03;;;15.97;;
20431;SDS011;10375;49.136;10.366;2023-02-15T07:53:32;31.60;;;14.83;;
20431;SDS011;10375;49.136;10.366;2023-02-15T07:56:04;24.00;;;14.97;;
20431;SDS011;10375;49.136;10.366;2023-02-15T07:58:33;25.63;;;14.57;;
20431;SDS011;10375;49.136;10.366;2023-02-15T08:01:26;21.53;;;14.27;;
20431;SDS011;10375;49.136;10.366;2023-02-15T08:03:55;34.73;;;15.60;;
20431;SDS011;10375;49.136;10.366;2023-02-15T08:06:25;27.77;;;14.73;;
20431;SDS011;10375;49.136;10.366;2023-02-15T08:08:53;23.87;;;14.73;;
20431;SDS011;10375;49.136;10.366;2023-02-15T08:11:22;29.33;;;13.93;;
20431;SDS011;10375;49.136;10.366;2023-02-15T08:14:04;24.43;;;15.00;;
20431;SDS011;10375;49.136;10.366;2023-02-15T08:16:45;41.17;;;13.97;;
20431;SDS011;10375;49.136;10.366;2023-02-15T08:21:47;33.57;;;16.13;;
20431;SDS011;10375;49.136;10.366;2023-02-15T08:24:16;24.73;;;14.57;;
20431;SDS011;10375;49.136;10.366;2023-02-15T08:26:46;26.00;;;14.17;;
20431;SDS011;10375;49.136;10.366;2023-02-15T08:29:18;33.60;;;14.67;;
20431;SDS011;10375;49.136;10.366;2023-02-15T08:31:49;34.17;;;14.50;;
20431;SDS011;10375;49.136;10.366;2023-02-15T08:34:19;25.70;;;15.33;;
20431;SDS011;10375;49.136;10.366;2023-02-15T08:36:47;26.87;;;15.03;;
20431;SDS011;10375;49.136;10.366;2023-02-15T08:39:14;27.43;;;14.83;;
20431;SDS011;10375;49.136;10.366;2023-02-15T08:41:43;25.60;;;15.43;;
20431;SDS011;10375;49.136;10.366;2023-02-15T08:44:12;23.47;;;14.27;;
20431;SDS011;10375;49.136;10.366;2023-02-15T08:46:42;27.20;;;15.40;;
20431;SDS011;10375;49.136;10.366;2023-02-15T08:49:13;25.07;;;15.20;;
20431;SDS011;10375;49.136;10.366;2023-02-15T08:51:44;25.30;;;14.57;;
20431;SDS011;10375;49.136;10.366;2023-02-15T08:54:13;20.20;;;12.97;;
20431;SDS011;10375;49.136;10.366;2023-02-15T08:56:42;27.90;;;14.67;;
20431;SDS011;10375;49.136;10.366;2023-02-15T08:59:17;27.17;;;14.67;;
20431;SDS011;10375;49.136;10.366;2023-02-15T09:01:49;28.10;;;14.60;;
20431;SDS011;10375;49.136;10.366;2023-02-15T09:04:17;29.23;;;15.07;;
20431;SDS011;10375;49.136;10.366;2023-02-15T09:06:45;23.73;;;14.60;;
20431;SDS011;10375;49.136;10.366;2023-02-15T09:09:14;27.03;;;13.83;;
20431;SDS011;10375;49.136;10.366;2023-02-15T09:11:43;19.13;;;13.27;;
20431;SDS011;10375;49.136;10.366;2023-02-15T09:14:16;27.70;;;14.73;;
20431;SDS011;10375;49.136;10.366;2023-02-15T09:16:46;29.07;;;14.03;;
20431;SDS011;10375;49.136;10.366;2023-02-15T09:19:16;25.37;;;14.77;;
20431;SDS011;10375;49.136;10.366;2023-02-15T09:21:45;21.47;;;13.13;;
20431;SDS011;10375;49.136;10.366;2023-02-15T09:24:13;20.53;;;13.13;;
20431;SDS011;10375;49.136;10.366;2023-02-15T09:26:43;25.80;;;13.80;;
20431;SDS011;10375;49.136;10.366;2023-02-15T09:29:12;21.20;;;13.30;;
20431;SDS011;10375;49.136;10.366;2023-02-15T09:31:41;21.47;;;13.43;;
20431;SDS011;10375;49.136;10.366;2023-02-15T09:34:13;25.57;;;13.53;;
20431;SDS011;10375;49.136;10.366;2023-02-15T09:36:45;22.20;;;12.63;;
20431;SDS011;10375;49.136;10.366;2023-02-15T09:39:20;21.80;;;13.50;;
20431;SDS011;10375;49.136;10.366;2023-02-15T09:47:52;18.30;;;12.70;;
20431;SDS011;10375;49.136;10.366;2023-02-15T10:25:55;18.37;;;12.47;;
20431;SDS011;10375;49.136;10.366;2023-02-15T10:33:40;18.17;;;13.20;;
20431;SDS011;10375;49.136;10.366;2023-02-15T10:39:02;16.93;;;12.53;;
20431;SDS011;10375;49.136;10.366;2023-02-15T10:41:59;17.70;;;12.20;;
20431;SDS011;10375;49.136;10.366;2023-02-15T10:53:26;16.53;;;12.27;;
20431;SDS011;10375;49.136;10.366;2023-02-15T10:56:10;19.53;;;12.80;;
20431;SDS011;10375;49.136;10.366;2023-02-15T11:07:06;17.73;;;12.87;;
20431;SDS011;10375;49.136;10.366;2023-02-15T11:09:56;19.80;;;13.03;;
20431;SDS011;10375;49.136;10.366;2023-02-15T11:12:46;21.70;;;15.03;;
20431;SDS011;10375;49.136;10.366;2023-02-15T11:15:20;20.17;;;13.73;;
20431;SDS011;10375;49.136;10.366;2023-02-15T11:18:43;20.43;;;14.07;;
20431;SDS011;10375;49.136;10.366;2023-02-15T11:23:21;19.90;;;13.77;;
20431;SDS011;10375;49.136;10.366;2023-02-15T11:25:57;18.93;;;12.97;;
20431;SDS011;10375;49.136;10.366;2023-02-15T11:28:40;18.20;;;12.63;;
20431;SDS011;10375;49.136;10.366;2023-02-15T11:31:17;19.30;;;13.67;;
20431;SDS011;10375;49.136;10.366;2023-02-15T11:33:49;21.43;;;13.70;;
20431;SDS011;10375;49.136;10.366;2023-02-15T11:36:22;17.70;;;12.57;;
20431;SDS011;10375;49.136;10.366;2023-02-15T11:38:56;18.00;;;12.80;;
20431;SDS011;10375;49.136;10.366;2023-02-15T11:41:29;19.17;;;12.97;;
20431;SDS011;10375;49.136;10.366;2023-02-15T11:44:05;17.03;;;12.17;;
20431;SDS011;10375;49.136;10.366;2023-02-15T11:46:38;20.77;;;13.73;;
20431;SDS011;10375;49.136;10.366;2023-02-15T11:49:23;21.33;;;12.73;;
20431;SDS011;10375;49.136;10.366;2023-02-15T11:51:57;17.83;;;13.03;;
20431;SDS011;10375;49.136;10.366;2023-02-15T11:54:27;17.67;;;12.33;;
20431;SDS011;10375;49.136;10.366;2023-02-15T11:56:56;15.87;;;12.23;;
20431;SDS011;10375;49.136;10.366;2023-02-15T11:59:34;16.73;;;11.90;;
20431;SDS011;10375;49.136;10.366;2023-02-15T12:02:10;17.17;;;12.40;;
20431;SDS011;10375;49.136;10.366;2023-02-15T12:04:51;16.97;;;12.30;;
20431;SDS011;10375;49.136;10.366;2023-02-15T12:07:31;16.93;;;11.53;;
20431;SDS011;10375;49.136;10.366;2023-02-15T12:10:05;24.77;;;15.23;;
20431;SDS011;10375;49.136;10.366;2023-02-15T12:13:16;18.33;;;12.87;;
20431;SDS011;10375;49.136;10.366;2023-02-15T12:15:50;18.63;;;13.53;;
20431;SDS011;10375;49.136;10.366;2023-02-15T12:21:03;19.30;;;13.50;;
20431;SDS011;10375;49.136;10.366;2023-02-15T12:23:33;18.23;;;13.73;;
20431;SDS011;10375;49.136;10.366;2023-02-15T12:26:01;19.07;;;13.40;;
20431;SDS011;10375;49.136;10.366;2023-02-15T12:28:36;19.53;;;13.43;;
20431;SDS011;10375;49.136;10.366;2023-02-15T12:31:19;19.97;;;13.57;;
20431;SDS011;10375;49.136;10.366;2023-02-15T12:33:47;17.70;;;12.73;;
20431;SDS011;10375;49.136;10.366;2023-02-15T12:36:17;22.23;;;13.27;;
20431;SDS011;10375;49.136;10.366;2023-02-15T12:39:01;20.63;;;14.17;;
20431;SDS011;10375;49.136;10.366;2023-02-15T12:41:44;17.87;;;13.43;;
20431;SDS011;10375;49.136;10.366;2023-02-15T12:44:33;20.20;;;14.23;;
20431;SDS011;10375;49.136;10.366;2023-02-15T12:49:35;18.67;;;13.83;;
20431;SDS011;10375;49.136;10.366;2023-02-15T12:54:46;18.87;;;13.60;;
20431;SDS011;10375;49.136;10.366;2023-02-15T13:00:12;19.33;;;13.33;;
20431;SDS011;10375;49.136;10.366;2023-02-15T13:02:57;18.80;;;13.33;;
20431;SDS011;10375;49.136;10.366;2023-02-15T13:05:36;18.47;;;14.10;;
20431;SDS011;10375;49.136;10.366;2023-02-15T13:08:16;19.53;;;12.70;;
20431;SDS011;10375;49.136;10.366;2023-02-15T13:11:03;41.00;;;13.67;;
20431;SDS011;10375;49.136;10.366;2023-02-15T13:13:53;19.40;;;13.20;;
20431;SDS011;10375;49.136;10.366;2023-02-15T13:16:32;18.23;;;13.40;;
20431;SDS011;10375;49.136;10.366;2023-02-15T13:19:18;17.63;;;12.90;;
20431;SDS011;10375;49.136;10.366;2023-02-15T13:21:50;18.00;;;13.47;;
20431;SDS011;10375;49.136;10.366;2023-02-15T13:27:20;39.43;;;13.80;;
20431;SDS011;10375;49.136;10.366;2023-02-15T13:29:54;19.80;;;13.77;;
20431;SDS011;10375;49.136;10.366;2023-02-15T13:32:28;20.40;;;14.60;;
20431;SDS011;10375;49.136;10.366;2023-02-15T13:35:01;21.50;;;15.03;;
20431;SDS011;10375;49.136;10.366;2023-02-15T13:37:50;19.93;;;13.67;;
20431;SDS011;10375;49.136;10.366;2023-02-15T13:40:58;17.10;;;12.90;;
20431;SDS011;10375;49.136;10.366;2023-02-15T13:46:20;20.17;;;14.60;;
20431;SDS011;10375;49.136;10.366;2023-02-15T13:49:13;21.70;;;15.77;;
20431;SDS011;10375;49.136;10.366;2023-02-15T14:02:46;21.27;;;15.73;;
20431;SDS011;10375;49.136;10.366;2023-02-15T14:05:29;23.10;;;15.67;;
20431;SDS011;10375;49.136;10.366;2023-02-15T14:08:11;23.07;;;16.33;;
20431;SDS011;10375;49.136;10.366;2023-02-15T14:11:06;24.53;;;16.87;;
20431;SDS011;10375;49.136;10.366;2023-02-15T14:13:56;25.30;;;16.83;;
20431;SDS011;10375;49.136;10.366;2023-02-15T14:16:54;23.80;;;17.03;;
20431;SDS011;10375;49.136;10.366;2023-02-15T14:19:44;26.27;;;17.17;;
20431;SDS011;10375;49.136;10.366;2023-02-15T14:25:05;23.70;;;15.77;;
20431;SDS011;10375;49.136;10.366;2023-02-15T14:30:22;24.40;;;16.60;;
20431;SDS011;10375;49.136;10.366;2023-02-15T14:33:02;24.77;;;16.73;;
20431;SDS011;10375;49.136;10.366;2023-02-15T14:35:40;24.17;;;17.03;;
20431;SDS011;10375;49.136;10.366;2023-02-15T14:38:13;27.07;;;17.03;;
20431;SDS011;10375;49.136;10.366;2023-02-15T14:43:59;22.27;;;15.60;;
20431;SDS011;10375;49.136;10.366;2023-02-15T14:49:19;26.57;;;16.67;;
20431;SDS011;10375;49.136;10.366;2023-02-15T15:05:21;24.00;;;16.40;;
20431;SDS011;10375;49.136;10.366;2023-02-15T15:08:03;20.63;;;15.03;;
20431;SDS011;10375;49.136;10.366;2023-02-15T15:10:36;21.27;;;15.87;;
20431;SDS011;10375;49.136;10.366;2023-02-15T15:18:53;25.10;;;16.87;;
20431;SDS011;10375;49.136;10.366;2023-02-15T15:32:45;29.87;;;18.43;;
20431;SDS011;10375;49.136;10.366;2023-02-15T15:41:19;28.77;;;18.20;;
20431;SDS011;10375;49.136;10.366;2023-02-15T15:50:04;41.97;;;18.83;;
20431;SDS011;10375;49.136;10.366;2023-02-15T15:52:43;31.97;;;17.30;;
20431;SDS011;10375;49.136;10.366;2023-02-15T15:55:22;157.60;;;21.60;;
20431;SDS011;10375;49.136;10.366;2023-02-15T15:57:53;38.07;;;17.07;;
20431;SDS011;10375;49.136;10.366;2023-02-15T16:02:59;46.27;;;19.30;;
20431;SDS011;10375;49.136;10.366;2023-02-15T16:05:30;254.60;;;24.83;;
20431;SDS011;10375;49.136;10.366;2023-02-15T16:08:01;147.47;;;20.63;;
20431;SDS011;10375;49.136;10.366;2023-02-15T16:10:28;161.63;;;21.63;;
20431;SDS011;10375;49.136;10.366;2023-02-15T16:12:59;165.27;;;22.27;;
20431;SDS011;10375;49.136;10.366;2023-02-15T16:15:52;453.50;;;34.53;;
20431;SDS011;10375;49.136;10.366;2023-02-15T16:18:23;225.10;;;25.77;;
20431;SDS011;10375;49.136;10.366;2023-02-15T16:20:55;293.73;;;26.63;;
20431;SDS011;10375;49.136;10.366;2023-02-15T16:28:51;256.07;;;23.53;;
20431;SDS011;10375;49.136;10.366;2023-02-15T16:31:20;114.60;;;20.67;;
20431;SDS011;10375;49.136;10.366;2023-02-15T16:33:54;216.53;;;23.93;;
20431;SDS011;10375;49.136;10.366;2023-02-15T16:36:23;97.50;;;22.57;;
20431;SDS011;10375;49.136;10.366;2023-02-15T16:43:50;169.53;;;20.13;;
20431;SDS011;10375;49.136;10.366;2023-02-15T16:46:26;275.63;;;23.43;;
20431;SDS011;10375;49.136;10.366;2023-02-15T16:49:13;206.07;;;19.83;;
20431;SDS011;10375;49.136;10.366;2023-02-15T16:51:57;51.23;;;15.90;;
20431;SDS011;10375;49.136;10.366;2023-02-15T16:54:27;68.47;;;18.33;;
20431;SDS011;10375;49.136;10.366;2023-02-15T16:56:57;41.07;;;16.47;;
20431;SDS011;10375;49.136;10.366;2023-02-15T16:59:32;66.63;;;19.23;;
20431;SDS011;10375;49.136;10.366;2023-02-15T17:02:04;78.30;;;18.13;;
20431;SDS011;10375;49.136;10.366;2023-02-15T17:04:33;163.40;;;19.03;;
20431;SDS011;10375;49.136;10.366;2023-02-15T17:07:18;63.17;;;17.67;;
20431;SDS011;10375;49.136;10.366;2023-02-15T17:09:53;60.13;;;17.50;;
20431;SDS011;10375;49.136;10.366;2023-02-15T17:12:56;75.43;;;17.43;;
20431;SDS011;10375;49.136;10.366;2023-02-15T17:18:18;98.20;;;18.53;;
20431;SDS011;10375;49.136;10.366;2023-02-15T17:20:48;110.53;;;17.93;;
20431;SDS011;10375;49.136;10.366;2023-02-15T17:23:40;116.85;;;23.15;;
20431;SDS011;10375;49.136;10.366;2023-02-15T17:26:18;54.17;;;17.43;;
20431;SDS011;10375;49.136;10.366;2023-02-15T17:28:49;66.90;;;16.40;;
20431;SDS011;10375;49.136;10.366;2023-02-15T17:31:23;96.20;;;17.77;;
20431;SDS011;10375;49.136;10.366;2023-02-15T17:33:55;112.40;;;17.67;;
20431;SDS011;10375;49.136;10.366;2023-02-15T17:36:25;65.20;;;16.27;;
20431;SDS011;10375;49.136;10.366;2023-02-15T17:41:29;158.97;;;19.70;;
20431;SDS011;10375;49.136;10.366;2023-02-15T17:43:57;50.57;;;15.80;;
20431;SDS011;10375;49.136;10.366;2023-02-15T17:46:24;71.30;;;16.47;;
20431;SDS011;10375;49.136;10.366;2023-02-15T17:48:53;53.03;;;15.77;;
20431;SDS011;10375;49.136;10.366;2023-02-15T17:51:21;71.67;;;17.60;;
20431;SDS011;10375;49.136;10.366;2023-02-15T17:53:49;84.17;;;16.67;;
20431;SDS011;10375;49.136;10.366;2023-02-15T17:56:36;82.03;;;16.83;;
20431;SDS011;10375;49.136;10.366;2023-02-15T17:59:04;88.83;;;18.63;;
20431;SDS011;10375;49.136;10.366;2023-02-15T18:01:33;79.07;;;18.47;;
20431;SDS011;10375;49.136;10.366;2023-02-15T18:04:45;74.83;;;16.53;;
20431;SDS011;10375;49.136;10.366;2023-02-15T18:07:31;32.13;;;16.33;;
20431;SDS011;10375;49.136;10.366;2023-02-15T18:10:17;48.53;;;18.33;;